sensor_id;sensor_type;location;lat;lon;timestamp;P1;durP1;ratioP1;P2;durP2;ratioP2
74707;SDS011;63360;50.104;8.074;2024-01-06T00:00:09;32.10;;;14.20;;
74707;SDS011;63360;50.104;8.074;2024-01-06T00:02:36;23.00;;;9.13;;
74707;SDS011;63360;50.104;8.074;2024-01-06T00:05:02;10.25;;;4.20;;
74707;SDS011;63360;50.104;8.074;2024-01-06T00:07:29;5.05;;;1.85;;
74707;SDS011;63360;50.104;8.074;2024-01-06T00:09:55;6.40;;;1.40;;
74707;SDS011;63360;50.104;8.074;2024-01-06T00:12:21;4.70;;;1.27;;
74707;SDS011;63360;50.104;8.074;2024-01-06T00:14:48;5.40;;;1.10;;
74707;SDS011;63360;50.104;8.074;2024-01-06T00:17:15;7.85;;;1.35;;
74707;SDS011;63360;50.104;8.074;2024-01-06T00:19:42;4.03;;;1.10;;
74707;SDS011;63360;50.104;8.074;2024-01-06T00:22:09;5.68;;;1.20;;
74707;SDS011;63360;50.104;8.074;2024-01-06T00:24:35;5.23;;;1.63;;
74707;SDS011;63360;50.104;8.074;2024-01-06T00:27:01;6.05;;;1.50;;
74707;SDS011;63360;50.104;8.074;2024-01-06T00:29:28;5.80;;;1.90;;
74707;SDS011;63360;50.104;8.074;2024-01-06T00:31:54;5.13;;;1.90;;
74707;SDS011;63360;50.104;8.074;2024-01-06T00:34:20;5.53;;;1.60;;
74707;SDS011;63360;50.104;8.074;2024-01-06T00:36:47;6.43;;;1.60;;
74707;SDS011;63360;50.104;8.074;2024-01-06T00:39:14;4.95;;;1.27;;
74707;SDS011;63360;50.104;8.074;2024-01-06T00:41:40;5.22;;;1.10;;
74707;SDS011;63360;50.104;8.074;2024-01-06T00:44:06;4.88;;;1.30;;
74707;SDS011;63360;50.104;8.074;2024-01-06T00:46:33;4.90;;;1.35;;
74707;SDS011;63360;50.104;8.074;2024-01-06T00:48:59;6.87;;;1.47;;
74707;SDS011;63360;50.104;8.074;2024-01-06T00:51:26;7.28;;;1.42;;
74707;SDS011;63360;50.104;8.074;2024-01-06T00:53:52;5.68;;;1.20;;
74707;SDS011;63360;50.104;8.074;2024-01-06T00:56:19;3.72;;;1.20;;
74707;SDS011;63360;50.104;8.074;2024-01-06T00:58:45;2.88;;;1.00;;
74707;SDS011;63360;50.104;8.074;2024-01-06T01:01:12;5.47;;;1.23;;
74707;SDS011;63360;50.104;8.074;2024-01-06T01:03:38;4.97;;;1.60;;
74707;SDS011;63360;50.104;8.074;2024-01-06T01:06:05;7.55;;;1.55;;
74707;SDS011;63360;50.104;8.074;2024-01-06T01:08:31;3.72;;;1.27;;
74707;SDS011;63360;50.104;8.074;2024-01-06T01:10:58;4.35;;;1.13;;
74707;SDS011;63360;50.104;8.074;2024-01-06T01:13:24;3.57;;;1.10;;
74707;SDS011;63360;50.104;8.074;2024-01-06T01:15:50;7.18;;;1.20;;
74707;SDS011;63360;50.104;8.074;2024-01-06T01:18:17;5.65;;;1.42;;
74707;SDS011;63360;50.104;8.074;2024-01-06T01:20:44;5.55;;;1.17;;
74707;SDS011;63360;50.104;8.074;2024-01-06T01:23:10;3.25;;;1.00;;
74707;SDS011;63360;50.104;8.074;2024-01-06T01:25:37;7.03;;;1.10;;
74707;SDS011;63360;50.104;8.074;2024-01-06T01:28:03;4.10;;;1.30;;
74707;SDS011;63360;50.104;8.074;2024-01-06T01:30:30;4.30;;;1.38;;
74707;SDS011;63360;50.104;8.074;2024-01-06T01:32:56;5.32;;;1.58;;
74707;SDS011;63360;50.104;8.074;2024-01-06T01:35:23;4.60;;;1.33;;
74707;SDS011;63360;50.104;8.074;2024-01-06T01:37:49;5.40;;;1.50;;
74707;SDS011;63360;50.104;8.074;2024-01-06T01:40:15;3.67;;;1.20;;
74707;SDS011;63360;50.104;8.074;2024-01-06T01:42:42;3.63;;;1.45;;
74707;SDS011;63360;50.104;8.074;2024-01-06T01:45:09;4.63;;;1.48;;
74707;SDS011;63360;50.104;8.074;2024-01-06T01:47:38;4.15;;;1.50;;
74707;SDS011;63360;50.104;8.074;2024-01-06T01:50:06;3.63;;;1.50;;
74707;SDS011;63360;50.104;8.074;2024-01-06T01:52:34;4.85;;;1.50;;
74707;SDS011;63360;50.104;8.074;2024-01-06T01:55:02;5.10;;;1.50;;
74707;SDS011;63360;50.104;8.074;2024-01-06T01:57:29;5.53;;;1.40;;
74707;SDS011;63360;50.104;8.074;2024-01-06T01:59:56;4.53;;;1.60;;
74707;SDS011;63360;50.104;8.074;2024-01-06T02:02:23;4.70;;;1.60;;
74707;SDS011;63360;50.104;8.074;2024-01-06T02:04:49;3.97;;;1.40;;
74707;SDS011;63360;50.104;8.074;2024-01-06T02:07:16;3.60;;;1.13;;
74707;SDS011;63360;50.104;8.074;2024-01-06T02:09:42;6.15;;;1.35;;
74707;SDS011;63360;50.104;8.074;2024-01-06T02:12:09;3.70;;;1.25;;
74707;SDS011;63360;50.104;8.074;2024-01-06T02:14:35;6.67;;;1.63;;
74707;SDS011;63360;50.104;8.074;2024-01-06T02:17:02;4.85;;;1.70;;
74707;SDS011;63360;50.104;8.074;2024-01-06T02:19:28;4.68;;;1.50;;
74707;SDS011;63360;50.104;8.074;2024-01-06T02:21:55;6.82;;;1.40;;
74707;SDS011;63360;50.104;8.074;2024-01-06T02:24:21;5.10;;;1.73;;
74707;SDS011;63360;50.104;8.074;2024-01-06T02:26:48;6.77;;;1.50;;
74707;SDS011;63360;50.104;8.074;2024-01-06T02:29:14;5.47;;;1.50;;
74707;SDS011;63360;50.104;8.074;2024-01-06T02:31:41;5.65;;;1.60;;
74707;SDS011;63360;50.104;8.074;2024-01-06T02:34:07;5.38;;;1.45;;
74707;SDS011;63360;50.104;8.074;2024-01-06T02:36:34;3.85;;;1.23;;
74707;SDS011;63360;50.104;8.074;2024-01-06T02:39:00;5.90;;;1.63;;
74707;SDS011;63360;50.104;8.074;2024-01-06T02:41:27;5.75;;;1.60;;
74707;SDS011;63360;50.104;8.074;2024-01-06T02:43:54;4.50;;;1.65;;
74707;SDS011;63360;50.104;8.074;2024-01-06T02:46:22;3.97;;;1.50;;
74707;SDS011;63360;50.104;8.074;2024-01-06T02:48:48;7.25;;;1.48;;
74707;SDS011;63360;50.104;8.074;2024-01-06T02:51:15;4.10;;;1.30;;
74707;SDS011;63360;50.104;8.074;2024-01-06T02:53:41;3.70;;;1.10;;
74707;SDS011;63360;50.104;8.074;2024-01-06T02:56:11;3.63;;;1.17;;
74707;SDS011;63360;50.104;8.074;2024-01-06T02:58:38;4.80;;;1.20;;
74707;SDS011;63360;50.104;8.074;2024-01-06T03:01:05;6.57;;;1.50;;
74707;SDS011;63360;50.104;8.074;2024-01-06T03:03:32;6.30;;;1.57;;
74707;SDS011;63360;50.104;8.074;2024-01-06T03:05:58;5.40;;;1.90;;
74707;SDS011;63360;50.104;8.074;2024-01-06T03:08:25;5.20;;;1.70;;
74707;SDS011;63360;50.104;8.074;2024-01-06T03:10:51;4.47;;;1.38;;
74707;SDS011;63360;50.104;8.074;2024-01-06T03:13:17;5.03;;;1.52;;
74707;SDS011;63360;50.104;8.074;2024-01-06T03:15:44;5.77;;;1.50;;
74707;SDS011;63360;50.104;8.074;2024-01-06T03:18:10;4.72;;;1.13;;
74707;SDS011;63360;50.104;8.074;2024-01-06T03:20:37;5.45;;;1.10;;
74707;SDS011;63360;50.104;8.074;2024-01-06T03:23:03;3.17;;;1.05;;
74707;SDS011;63360;50.104;8.074;2024-01-06T03:25:29;4.25;;;1.08;;
74707;SDS011;63360;50.104;8.074;2024-01-06T03:27:56;3.80;;;1.10;;
74707;SDS011;63360;50.104;8.074;2024-01-06T03:30:22;5.18;;;1.20;;
74707;SDS011;63360;50.104;8.074;2024-01-06T03:32:49;5.20;;;1.00;;
74707;SDS011;63360;50.104;8.074;2024-01-06T03:35:15;3.97;;;1.20;;
74707;SDS011;63360;50.104;8.074;2024-01-06T03:37:43;4.88;;;1.08;;
74707;SDS011;63360;50.104;8.074;2024-01-06T03:40:09;3.87;;;1.17;;
74707;SDS011;63360;50.104;8.074;2024-01-06T03:42:36;3.28;;;1.10;;
74707;SDS011;63360;50.104;8.074;2024-01-06T03:45:03;4.82;;;0.90;;
74707;SDS011;63360;50.104;8.074;2024-01-06T03:47:29;3.50;;;0.90;;
74707;SDS011;63360;50.104;8.074;2024-01-06T03:49:56;3.88;;;1.00;;
74707;SDS011;63360;50.104;8.074;2024-01-06T03:52:22;4.20;;;1.00;;
74707;SDS011;63360;50.104;8.074;2024-01-06T03:54:49;6.82;;;1.20;;
74707;SDS011;63360;50.104;8.074;2024-01-06T03:57:15;3.83;;;0.90;;
74707;SDS011;63360;50.104;8.074;2024-01-06T03:59:42;3.33;;;1.00;;
74707;SDS011;63360;50.104;8.074;2024-01-06T04:02:08;2.97;;;1.00;;
74707;SDS011;63360;50.104;8.074;2024-01-06T04:04:34;5.40;;;1.10;;
74707;SDS011;63360;50.104;8.074;2024-01-06T04:07:01;3.97;;;1.52;;
74707;SDS011;63360;50.104;8.074;2024-01-06T04:09:27;5.32;;;1.10;;
74707;SDS011;63360;50.104;8.074;2024-01-06T04:11:54;3.05;;;1.17;;
74707;SDS011;63360;50.104;8.074;2024-01-06T04:14:20;4.03;;;1.23;;
74707;SDS011;63360;50.104;8.074;2024-01-06T04:16:46;4.23;;;0.90;;
74707;SDS011;63360;50.104;8.074;2024-01-06T04:19:13;3.55;;;1.00;;
74707;SDS011;63360;50.104;8.074;2024-01-06T04:21:41;3.75;;;0.90;;
74707;SDS011;63360;50.104;8.074;2024-01-06T04:24:07;2.75;;;0.82;;
74707;SDS011;63360;50.104;8.074;2024-01-06T04:26:34;2.97;;;0.80;;
74707;SDS011;63360;50.104;8.074;2024-01-06T04:29:01;2.80;;;0.80;;
74707;SDS011;63360;50.104;8.074;2024-01-06T04:31:27;4.40;;;0.90;;
74707;SDS011;63360;50.104;8.074;2024-01-06T04:33:54;5.22;;;0.70;;
74707;SDS011;63360;50.104;8.074;2024-01-06T04:36:20;3.22;;;1.20;;
74707;SDS011;63360;50.104;8.074;2024-01-06T04:38:47;4.30;;;1.10;;
74707;SDS011;63360;50.104;8.074;2024-01-06T04:41:13;2.40;;;1.17;;
74707;SDS011;63360;50.104;8.074;2024-01-06T04:43:39;3.35;;;1.20;;
74707;SDS011;63360;50.104;8.074;2024-01-06T04:46:06;3.75;;;0.93;;
74707;SDS011;63360;50.104;8.074;2024-01-06T04:48:32;3.17;;;0.80;;
74707;SDS011;63360;50.104;8.074;2024-01-06T04:50:59;2.95;;;0.73;;
74707;SDS011;63360;50.104;8.074;2024-01-06T04:53:25;3.93;;;0.80;;
74707;SDS011;63360;50.104;8.074;2024-01-06T04:55:51;3.13;;;0.73;;
74707;SDS011;63360;50.104;8.074;2024-01-06T04:58:18;4.72;;;1.00;;
74707;SDS011;63360;50.104;8.074;2024-01-06T05:00:44;3.70;;;0.82;;
74707;SDS011;63360;50.104;8.074;2024-01-06T05:03:11;3.60;;;0.82;;
74707;SDS011;63360;50.104;8.074;2024-01-06T05:05:37;5.93;;;1.10;;
74707;SDS011;63360;50.104;8.074;2024-01-06T05:08:04;2.78;;;1.00;;
74707;SDS011;63360;50.104;8.074;2024-01-06T05:10:30;3.38;;;1.13;;
74707;SDS011;63360;50.104;8.074;2024-01-06T05:12:57;2.97;;;1.10;;
74707;SDS011;63360;50.104;8.074;2024-01-06T05:15:23;3.53;;;1.10;;
74707;SDS011;63360;50.104;8.074;2024-01-06T05:17:50;4.63;;;1.10;;
74707;SDS011;63360;50.104;8.074;2024-01-06T05:20:16;4.85;;;1.50;;
74707;SDS011;63360;50.104;8.074;2024-01-06T05:22:43;5.55;;;1.85;;
74707;SDS011;63360;50.104;8.074;2024-01-06T05:25:09;5.18;;;1.80;;
74707;SDS011;63360;50.104;8.074;2024-01-06T05:27:35;4.43;;;1.60;;
74707;SDS011;63360;50.104;8.074;2024-01-06T05:30:02;3.80;;;1.53;;
74707;SDS011;63360;50.104;8.074;2024-01-06T05:32:29;4.60;;;1.40;;
74707;SDS011;63360;50.104;8.074;2024-01-06T05:34:55;4.80;;;1.40;;
74707;SDS011;63360;50.104;8.074;2024-01-06T05:37:22;4.05;;;1.30;;
74707;SDS011;63360;50.104;8.074;2024-01-06T05:39:48;4.40;;;1.60;;
74707;SDS011;63360;50.104;8.074;2024-01-06T05:42:15;3.70;;;1.67;;
74707;SDS011;63360;50.104;8.074;2024-01-06T05:44:41;4.88;;;1.50;;
74707;SDS011;63360;50.104;8.074;2024-01-06T05:47:08;3.97;;;1.10;;
74707;SDS011;63360;50.104;8.074;2024-01-06T05:49:34;3.72;;;1.10;;
74707;SDS011;63360;50.104;8.074;2024-01-06T05:52:01;3.92;;;1.40;;
74707;SDS011;63360;50.104;8.074;2024-01-06T05:54:27;5.67;;;1.60;;
74707;SDS011;63360;50.104;8.074;2024-01-06T05:56:55;2.88;;;1.30;;
74707;SDS011;63360;50.104;8.074;2024-01-06T05:59:21;4.95;;;1.40;;
74707;SDS011;63360;50.104;8.074;2024-01-06T06:01:48;4.68;;;1.30;;
74707;SDS011;63360;50.104;8.074;2024-01-06T06:04:14;4.78;;;1.10;;
74707;SDS011;63360;50.104;8.074;2024-01-06T06:06:40;5.23;;;1.23;;
74707;SDS011;63360;50.104;8.074;2024-01-06T06:09:07;4.53;;;1.10;;
74707;SDS011;63360;50.104;8.074;2024-01-06T06:11:35;3.88;;;1.30;;
74707;SDS011;63360;50.104;8.074;2024-01-06T06:14:02;3.88;;;1.08;;
74707;SDS011;63360;50.104;8.074;2024-01-06T06:16:29;4.28;;;1.33;;
74707;SDS011;63360;50.104;8.074;2024-01-06T06:18:56;5.60;;;1.70;;
74707;SDS011;63360;50.104;8.074;2024-01-06T06:21:22;5.18;;;1.73;;
74707;SDS011;63360;50.104;8.074;2024-01-06T06:23:49;4.63;;;1.73;;
74707;SDS011;63360;50.104;8.074;2024-01-06T06:26:16;7.13;;;2.40;;
74707;SDS011;63360;50.104;8.074;2024-01-06T06:28:42;4.78;;;2.50;;
74707;SDS011;63360;50.104;8.074;2024-01-06T06:31:08;6.87;;;2.70;;
74707;SDS011;63360;50.104;8.074;2024-01-06T06:33:35;9.73;;;2.92;;
74707;SDS011;63360;50.104;8.074;2024-01-06T06:36:01;7.90;;;3.13;;
74707;SDS011;63360;50.104;8.074;2024-01-06T06:38:28;11.43;;;3.30;;
74707;SDS011;63360;50.104;8.074;2024-01-06T06:40:55;9.18;;;3.33;;
74707;SDS011;63360;50.104;8.074;2024-01-06T06:43:22;10.37;;;4.00;;
74707;SDS011;63360;50.104;8.074;2024-01-06T06:45:48;8.52;;;3.42;;
74707;SDS011;63360;50.104;8.074;2024-01-06T06:48:15;6.25;;;1.70;;
74707;SDS011;63360;50.104;8.074;2024-01-06T06:50:41;3.95;;;1.45;;
74707;SDS011;63360;50.104;8.074;2024-01-06T06:53:08;8.65;;;1.30;;
74707;SDS011;63360;50.104;8.074;2024-01-06T06:55:34;4.40;;;1.30;;
74707;SDS011;63360;50.104;8.074;2024-01-06T06:58:03;5.55;;;1.50;;
74707;SDS011;63360;50.104;8.074;2024-01-06T07:00:31;4.43;;;1.42;;
74707;SDS011;63360;50.104;8.074;2024-01-06T07:02:58;4.05;;;1.50;;
74707;SDS011;63360;50.104;8.074;2024-01-06T07:05:24;7.40;;;1.98;;
74707;SDS011;63360;50.104;8.074;2024-01-06T07:07:51;4.60;;;1.77;;
74707;SDS011;63360;50.104;8.074;2024-01-06T07:10:17;4.05;;;1.48;;
74707;SDS011;63360;50.104;8.074;2024-01-06T07:12:44;4.05;;;1.70;;
74707;SDS011;63360;50.104;8.074;2024-01-06T07:15:10;4.47;;;1.52;;
74707;SDS011;63360;50.104;8.074;2024-01-06T07:17:37;3.88;;;1.63;;
74707;SDS011;63360;50.104;8.074;2024-01-06T07:20:05;5.33;;;2.40;;
74707;SDS011;63360;50.104;8.074;2024-01-06T07:22:33;7.90;;;2.75;;
74707;SDS011;63360;50.104;8.074;2024-01-06T07:25:02;7.57;;;2.53;;
74707;SDS011;63360;50.104;8.074;2024-01-06T07:27:29;8.18;;;2.60;;
74707;SDS011;63360;50.104;8.074;2024-01-06T07:29:55;4.25;;;1.77;;
74707;SDS011;63360;50.104;8.074;2024-01-06T07:32:22;3.90;;;1.50;;
74707;SDS011;63360;50.104;8.074;2024-01-06T07:34:49;3.75;;;1.20;;
74707;SDS011;63360;50.104;8.074;2024-01-06T07:37:15;2.45;;;1.17;;
74707;SDS011;63360;50.104;8.074;2024-01-06T07:39:42;4.60;;;1.42;;
74707;SDS011;63360;50.104;8.074;2024-01-06T07:42:09;5.78;;;1.45;;
74707;SDS011;63360;50.104;8.074;2024-01-06T07:44:35;2.80;;;1.10;;
74707;SDS011;63360;50.104;8.074;2024-01-06T07:47:01;3.72;;;1.30;;
74707;SDS011;63360;50.104;8.074;2024-01-06T07:49:31;5.15;;;1.40;;
74707;SDS011;63360;50.104;8.074;2024-01-06T07:51:58;3.45;;;1.27;;
74707;SDS011;63360;50.104;8.074;2024-01-06T07:54:24;4.05;;;1.30;;
74707;SDS011;63360;50.104;8.074;2024-01-06T07:56:51;4.43;;;1.40;;
74707;SDS011;63360;50.104;8.074;2024-01-06T07:59:17;5.28;;;2.05;;
74707;SDS011;63360;50.104;8.074;2024-01-06T08:01:44;4.53;;;1.90;;
74707;SDS011;63360;50.104;8.074;2024-01-06T08:04:10;3.83;;;1.70;;
74707;SDS011;63360;50.104;8.074;2024-01-06T08:06:37;4.75;;;1.70;;
74707;SDS011;63360;50.104;8.074;2024-01-06T08:09:03;7.30;;;2.47;;
74707;SDS011;63360;50.104;8.074;2024-01-06T08:11:30;5.93;;;2.85;;
74707;SDS011;63360;50.104;8.074;2024-01-06T08:13:56;5.85;;;1.90;;
74707;SDS011;63360;50.104;8.074;2024-01-06T08:16:23;6.10;;;1.98;;
74707;SDS011;63360;50.104;8.074;2024-01-06T08:18:49;4.10;;;1.88;;
74707;SDS011;63360;50.104;8.074;2024-01-06T08:21:16;6.03;;;2.13;;
74707;SDS011;63360;50.104;8.074;2024-01-06T08:23:42;4.72;;;2.45;;
74707;SDS011;63360;50.104;8.074;2024-01-06T08:26:08;5.80;;;2.70;;
74707;SDS011;63360;50.104;8.074;2024-01-06T08:28:38;6.43;;;2.45;;
74707;SDS011;63360;50.104;8.074;2024-01-06T08:31:05;5.32;;;2.30;;
74707;SDS011;63360;50.104;8.074;2024-01-06T08:33:32;6.00;;;2.50;;
74707;SDS011;63360;50.104;8.074;2024-01-06T08:35:58;6.18;;;2.97;;
74707;SDS011;63360;50.104;8.074;2024-01-06T08:38:25;6.82;;;2.35;;
74707;SDS011;63360;50.104;8.074;2024-01-06T08:40:51;5.15;;;2.20;;
74707;SDS011;63360;50.104;8.074;2024-01-06T08:43:19;4.50;;;2.30;;
74707;SDS011;63360;50.104;8.074;2024-01-06T08:45:46;17.37;;;7.17;;
74707;SDS011;63360;50.104;8.074;2024-01-06T08:48:12;14.65;;;6.55;;
74707;SDS011;63360;50.104;8.074;2024-01-06T08:50:40;12.18;;;5.32;;
74707;SDS011;63360;50.104;8.074;2024-01-06T08:53:06;6.90;;;2.80;;
74707;SDS011;63360;50.104;8.074;2024-01-06T08:55:32;6.32;;;2.30;;
74707;SDS011;63360;50.104;8.074;2024-01-06T08:57:59;4.60;;;1.97;;
74707;SDS011;63360;50.104;8.074;2024-01-06T09:00:25;4.88;;;2.03;;
74707;SDS011;63360;50.104;8.074;2024-01-06T09:02:52;6.28;;;2.40;;
74707;SDS011;63360;50.104;8.074;2024-01-06T09:05:18;5.47;;;2.38;;
74707;SDS011;63360;50.104;8.074;2024-01-06T09:07:45;6.55;;;2.20;;
74707;SDS011;63360;50.104;8.074;2024-01-06T09:10:20;4.80;;;1.90;;
74707;SDS011;63360;50.104;8.074;2024-01-06T09:12:46;4.88;;;2.03;;
74707;SDS011;63360;50.104;8.074;2024-01-06T09:15:14;6.40;;;1.90;;
74707;SDS011;63360;50.104;8.074;2024-01-06T09:17:40;4.13;;;1.70;;
74707;SDS011;63360;50.104;8.074;2024-01-06T09:20:07;6.07;;;2.20;;
74707;SDS011;63360;50.104;8.074;2024-01-06T09:22:33;4.90;;;1.87;;
74707;SDS011;63360;50.104;8.074;2024-01-06T09:25:00;3.80;;;1.83;;
74707;SDS011;63360;50.104;8.074;2024-01-06T09:27:26;5.25;;;1.67;;
74707;SDS011;63360;50.104;8.074;2024-01-06T09:29:52;5.32;;;1.80;;
74707;SDS011;63360;50.104;8.074;2024-01-06T09:32:19;6.68;;;2.05;;
74707;SDS011;63360;50.104;8.074;2024-01-06T09:34:45;4.33;;;1.70;;
74707;SDS011;63360;50.104;8.074;2024-01-06T09:37:12;5.47;;;2.03;;
74707;SDS011;63360;50.104;8.074;2024-01-06T09:39:38;5.70;;;1.85;;
74707;SDS011;63360;50.104;8.074;2024-01-06T09:42:05;4.30;;;1.90;;
74707;SDS011;63360;50.104;8.074;2024-01-06T09:44:32;5.75;;;2.03;;
74707;SDS011;63360;50.104;8.074;2024-01-06T09:46:59;7.37;;;2.30;;
74707;SDS011;63360;50.104;8.074;2024-01-06T09:49:28;4.32;;;1.83;;
74707;SDS011;63360;50.104;8.074;2024-01-06T09:51:56;7.57;;;2.10;;
74707;SDS011;63360;50.104;8.074;2024-01-06T09:54:25;4.85;;;2.20;;
74707;SDS011;63360;50.104;8.074;2024-01-06T09:56:56;4.70;;;1.95;;
74707;SDS011;63360;50.104;8.074;2024-01-06T09:59:22;4.73;;;2.00;;
74707;SDS011;63360;50.104;8.074;2024-01-06T10:01:49;5.68;;;2.38;;
74707;SDS011;63360;50.104;8.074;2024-01-06T10:04:16;4.97;;;1.98;;
74707;SDS011;63360;50.104;8.074;2024-01-06T10:06:48;6.35;;;2.50;;
74707;SDS011;63360;50.104;8.074;2024-01-06T10:09:15;6.30;;;2.72;;
74707;SDS011;63360;50.104;8.074;2024-01-06T10:11:42;6.03;;;2.10;;
74707;SDS011;63360;50.104;8.074;2024-01-06T10:14:09;4.22;;;2.00;;
74707;SDS011;63360;50.104;8.074;2024-01-06T10:16:35;7.07;;;2.60;;
74707;SDS011;63360;50.104;8.074;2024-01-06T10:19:02;8.10;;;2.78;;
74707;SDS011;63360;50.104;8.074;2024-01-06T10:21:29;5.95;;;2.13;;
74707;SDS011;63360;50.104;8.074;2024-01-06T10:23:58;5.90;;;2.43;;
74707;SDS011;63360;50.104;8.074;2024-01-06T10:26:25;5.72;;;2.45;;
74707;SDS011;63360;50.104;8.074;2024-01-06T10:28:52;8.13;;;2.08;;
74707;SDS011;63360;50.104;8.074;2024-01-06T10:31:18;5.53;;;2.40;;
74707;SDS011;63360;50.104;8.074;2024-01-06T10:33:45;5.30;;;2.30;;
74707;SDS011;63360;50.104;8.074;2024-01-06T10:36:12;5.13;;;1.87;;
74707;SDS011;63360;50.104;8.074;2024-01-06T10:38:40;7.13;;;2.50;;
74707;SDS011;63360;50.104;8.074;2024-01-06T10:41:06;6.43;;;2.55;;
74707;SDS011;63360;50.104;8.074;2024-01-06T10:43:34;6.15;;;2.75;;
74707;SDS011;63360;50.104;8.074;2024-01-06T10:46:04;8.23;;;2.83;;
74707;SDS011;63360;50.104;8.074;2024-01-06T10:48:34;4.63;;;2.20;;
74707;SDS011;63360;50.104;8.074;2024-01-06T10:51:01;5.40;;;2.10;;
74707;SDS011;63360;50.104;8.074;2024-01-06T10:53:34;5.45;;;2.40;;
74707;SDS011;63360;50.104;8.074;2024-01-06T10:56:05;6.35;;;2.70;;
74707;SDS011;63360;50.104;8.074;2024-01-06T10:58:37;5.78;;;2.30;;
74707;SDS011;63360;50.104;8.074;2024-01-06T11:01:09;6.23;;;2.17;;
74707;SDS011;63360;50.104;8.074;2024-01-06T11:03:36;5.53;;;2.40;;
74707;SDS011;63360;50.104;8.074;2024-01-06T11:06:05;6.18;;;2.60;;
74707;SDS011;63360;50.104;8.074;2024-01-06T11:08:33;5.68;;;2.03;;
74707;SDS011;63360;50.104;8.074;2024-01-06T11:11:09;4.75;;;2.00;;
74707;SDS011;63360;50.104;8.074;2024-01-06T11:13:35;7.23;;;2.47;;
74707;SDS011;63360;50.104;8.074;2024-01-06T11:16:03;4.90;;;1.98;;
74707;SDS011;63360;50.104;8.074;2024-01-06T11:23:39;4.25;;;1.85;;
74707;SDS011;63360;50.104;8.074;2024-01-06T11:26:06;3.97;;;1.50;;
74707;SDS011;63360;50.104;8.074;2024-01-06T11:28:45;5.85;;;1.38;;
74707;SDS011;63360;50.104;8.074;2024-01-06T11:31:12;3.30;;;1.27;;
74707;SDS011;63360;50.104;8.074;2024-01-06T11:33:43;2.97;;;1.30;;
74707;SDS011;63360;50.104;8.074;2024-01-06T11:36:10;3.33;;;1.40;;
74707;SDS011;63360;50.104;8.074;2024-01-06T11:38:37;3.93;;;1.70;;
74707;SDS011;63360;50.104;8.074;2024-01-06T11:41:06;3.40;;;1.50;;
74707;SDS011;63360;50.104;8.074;2024-01-06T11:43:37;4.30;;;1.35;;
74707;SDS011;63360;50.104;8.074;2024-01-06T11:46:05;3.25;;;1.50;;
74707;SDS011;63360;50.104;8.074;2024-01-06T11:48:35;3.97;;;1.50;;
74707;SDS011;63360;50.104;8.074;2024-01-06T11:51:03;3.50;;;1.20;;
74707;SDS011;63360;50.104;8.074;2024-01-06T11:53:29;2.78;;;1.05;;
74707;SDS011;63360;50.104;8.074;2024-01-06T11:55:56;4.32;;;1.25;;
74707;SDS011;63360;50.104;8.074;2024-01-06T11:58:22;3.13;;;1.10;;
74707;SDS011;63360;50.104;8.074;2024-01-06T12:00:55;2.95;;;1.08;;
74707;SDS011;63360;50.104;8.074;2024-01-06T12:03:25;1.83;;;0.80;;
74707;SDS011;63360;50.104;8.074;2024-01-06T12:05:59;3.17;;;0.90;;
74707;SDS011;63360;50.104;8.074;2024-01-06T12:08:27;2.15;;;0.80;;
74707;SDS011;63360;50.104;8.074;2024-01-06T12:11:04;2.10;;;0.80;;
74707;SDS011;63360;50.104;8.074;2024-01-06T12:13:31;1.95;;;0.70;;
74707;SDS011;63360;50.104;8.074;2024-01-06T12:15:57;1.83;;;0.63;;
74707;SDS011;63360;50.104;8.074;2024-01-06T12:18:24;2.03;;;0.63;;
74707;SDS011;63360;50.104;8.074;2024-01-06T12:20:52;1.70;;;0.60;;
74707;SDS011;63360;50.104;8.074;2024-01-06T12:23:24;1.88;;;0.70;;
74707;SDS011;63360;50.104;8.074;2024-01-06T12:25:56;1.63;;;0.55;;
74707;SDS011;63360;50.104;8.074;2024-01-06T12:28:23;2.03;;;0.80;;
74707;SDS011;63360;50.104;8.074;2024-01-06T12:30:49;1.90;;;0.70;;
74707;SDS011;63360;50.104;8.074;2024-01-06T12:33:15;2.08;;;0.80;;
74707;SDS011;63360;50.104;8.074;2024-01-06T12:35:42;2.10;;;0.88;;
74707;SDS011;63360;50.104;8.074;2024-01-06T12:38:09;2.70;;;0.80;;
74707;SDS011;63360;50.104;8.074;2024-01-06T12:40:35;2.70;;;0.93;;
74707;SDS011;63360;50.104;8.074;2024-01-06T12:43:06;3.80;;;1.38;;
74707;SDS011;63360;50.104;8.074;2024-01-06T12:45:33;6.65;;;2.40;;
74707;SDS011;63360;50.104;8.074;2024-01-06T12:47:59;7.00;;;3.05;;
74707;SDS011;63360;50.104;8.074;2024-01-06T12:50:26;8.18;;;3.10;;
74707;SDS011;63360;50.104;8.074;2024-01-06T12:52:52;10.47;;;3.90;;
74707;SDS011;63360;50.104;8.074;2024-01-06T12:55:19;9.23;;;3.65;;
74707;SDS011;63360;50.104;8.074;2024-01-06T12:57:45;10.43;;;4.10;;
74707;SDS011;63360;50.104;8.074;2024-01-06T13:00:12;10.15;;;3.65;;
74707;SDS011;63360;50.104;8.074;2024-01-06T13:02:38;8.77;;;3.10;;
74707;SDS011;63360;50.104;8.074;2024-01-06T13:05:05;9.10;;;3.30;;
74707;SDS011;63360;50.104;8.074;2024-01-06T13:07:31;8.98;;;2.88;;
74707;SDS011;63360;50.104;8.074;2024-01-06T13:09:58;9.13;;;3.28;;
74707;SDS011;63360;50.104;8.074;2024-01-06T13:12:26;10.32;;;4.00;;
74707;SDS011;63360;50.104;8.074;2024-01-06T13:14:53;11.07;;;4.22;;
74707;SDS011;63360;50.104;8.074;2024-01-06T13:17:19;10.00;;;3.53;;
74707;SDS011;63360;50.104;8.074;2024-01-06T13:19:45;10.90;;;3.83;;
74707;SDS011;63360;50.104;8.074;2024-01-06T13:22:12;8.70;;;3.47;;
74707;SDS011;63360;50.104;8.074;2024-01-06T13:24:40;9.57;;;3.53;;
74707;SDS011;63360;50.104;8.074;2024-01-06T13:27:07;10.60;;;3.65;;
74707;SDS011;63360;50.104;8.074;2024-01-06T13:29:34;8.43;;;3.03;;
74707;SDS011;63360;50.104;8.074;2024-01-06T13:32:00;10.43;;;3.90;;
74707;SDS011;63360;50.104;8.074;2024-01-06T13:34:27;9.95;;;3.75;;
74707;SDS011;63360;50.104;8.074;2024-01-06T13:36:56;12.38;;;4.72;;
74707;SDS011;63360;50.104;8.074;2024-01-06T13:39:23;11.32;;;4.13;;
74707;SDS011;63360;50.104;8.074;2024-01-06T13:41:50;11.23;;;4.20;;
74707;SDS011;63360;50.104;8.074;2024-01-06T13:44:16;12.82;;;4.90;;
74707;SDS011;63360;50.104;8.074;2024-01-06T13:46:43;14.07;;;5.20;;
74707;SDS011;63360;50.104;8.074;2024-01-06T13:49:13;13.70;;;4.72;;
74707;SDS011;63360;50.104;8.074;2024-01-06T13:51:40;12.43;;;5.03;;
74707;SDS011;63360;50.104;8.074;2024-01-06T13:54:07;12.43;;;4.30;;
74707;SDS011;63360;50.104;8.074;2024-01-06T13:56:33;10.60;;;3.65;;
74707;SDS011;63360;50.104;8.074;2024-01-06T13:59:00;12.48;;;4.22;;
74707;SDS011;63360;50.104;8.074;2024-01-06T14:01:26;10.95;;;4.07;;
74707;SDS011;63360;50.104;8.074;2024-01-06T14:03:53;12.07;;;4.15;;
74707;SDS011;63360;50.104;8.074;2024-01-06T14:06:24;12.17;;;4.07;;
74707;SDS011;63360;50.104;8.074;2024-01-06T14:08:51;13.68;;;4.25;;
74707;SDS011;63360;50.104;8.074;2024-01-06T14:11:18;11.68;;;3.92;;
74707;SDS011;63360;50.104;8.074;2024-01-06T14:13:45;10.82;;;4.03;;
74707;SDS011;63360;50.104;8.074;2024-01-06T14:16:15;11.27;;;4.47;;
74707;SDS011;63360;50.104;8.074;2024-01-06T14:18:41;9.67;;;3.37;;
74707;SDS011;63360;50.104;8.074;2024-01-06T14:21:09;9.98;;;3.78;;
74707;SDS011;63360;50.104;8.074;2024-01-06T14:23:36;10.27;;;3.90;;
74707;SDS011;63360;50.104;8.074;2024-01-06T14:26:03;10.50;;;3.67;;
74707;SDS011;63360;50.104;8.074;2024-01-06T14:28:29;10.63;;;3.83;;
74707;SDS011;63360;50.104;8.074;2024-01-06T14:30:56;8.67;;;3.23;;
74707;SDS011;63360;50.104;8.074;2024-01-06T14:33:22;8.35;;;3.00;;
74707;SDS011;63360;50.104;8.074;2024-01-06T14:35:49;8.07;;;3.42;;
74707;SDS011;63360;50.104;8.074;2024-01-06T14:38:15;9.88;;;4.03;;
74707;SDS011;63360;50.104;8.074;2024-01-06T14:40:42;10.40;;;3.83;;
74707;SDS011;63360;50.104;8.074;2024-01-06T14:43:08;9.33;;;3.17;;
74707;SDS011;63360;50.104;8.074;2024-01-06T14:45:36;7.35;;;2.60;;
74707;SDS011;63360;50.104;8.074;2024-01-06T14:48:03;7.57;;;2.60;;